createdAt,value
2023-02-19T00:02:03.122Z,10.10
2023-02-19T00:04:31.607Z,10.10
2023-02-19T00:07:00.093Z,10.10
2023-02-19T00:09:28.806Z,10.10
2023-02-19T00:11:57.391Z,10.10
2023-02-19T00:14:25.900Z,10.10
2023-02-19T00:16:55.854Z,10.10
2023-02-19T00:19:24.380Z,10.10
2023-02-19T00:21:53.637Z,10.10
2023-02-19T00:24:23.023Z,10.20
2023-02-19T00:26:51.697Z,10.20
2023-02-19T00:29:22.573Z,10.20
2023-02-19T00:31:51.338Z,10.10
2023-02-19T00:34:21.727Z,10.10
2023-02-19T00:36:50.331Z,10.10
2023-02-19T00:39:19.011Z,10.10
2023-02-19T00:41:47.857Z,10.10
2023-02-19T00:44:16.941Z,10.10
2023-02-19T00:46:47.602Z,10.00
2023-02-19T00:49:19.155Z,10.10
2023-02-19T00:51:49.792Z,10.10
2023-02-19T00:54:18.890Z,10.10
2023-02-19T00:56:47.639Z,10.10
2023-02-19T00:59:16.397Z,10.10
2023-02-19T01:01:45.719Z,10.20
2023-02-19T01:04:16.351Z,10.20
2023-02-19T01:06:45.052Z,10.20
2023-02-19T01:09:14.955Z,10.20
2023-02-19T01:11:43.459Z,10.30
2023-02-19T01:14:12.425Z,10.30
2023-02-19T01:16:41.282Z,10.30
2023-02-19T01:19:09.940Z,10.30
2023-02-19T01:21:38.526Z,10.30
2023-02-19T01:24:07.512Z,10.20
2023-02-19T01:26:37.424Z,10.20
2023-02-19T01:29:06.015Z,10.20
2023-02-19T01:31:36.569Z,10.20
2023-02-19T01:34:06.393Z,10.20
2023-02-19T01:36:36.743Z,10.10
2023-02-19T01:39:07.242Z,10.10
2023-02-19T01:41:40.305Z,10.10
2023-02-19T01:44:25.517Z,10.10
2023-02-19T01:46:57.513Z,10.10
2023-02-19T01:49:28.931Z,10.10
2023-02-19T01:52:01.419Z,10.10
2023-02-19T01:54:32.573Z,10.10
2023-02-19T01:57:06.591Z,10.00
2023-02-19T01:59:35.705Z,10.00
2023-02-19T02:02:04.555Z,10.00
2023-02-19T02:04:33.982Z,9.90
2023-02-19T02:07:25.665Z,9.90
2023-02-19T02:10:12.828Z,9.90
2023-02-19T02:12:42.766Z,9.90
2023-02-19T02:15:11.380Z,9.90
2023-02-19T02:17:51.199Z,9.90
2023-02-19T02:20:35.731Z,9.90
2023-02-19T02:23:14.987Z,9.90
2023-02-19T02:26:02.138Z,9.90
2023-02-19T02:28:59.880Z,9.90
2023-02-19T02:31:35.053Z,9.90
2023-02-19T02:34:10.667Z,9.90
2023-02-19T02:36:42.450Z,9.90
2023-02-19T02:39:18.158Z,9.90
2023-02-19T02:42:10.850Z,9.90
2023-02-19T02:44:41.691Z,9.90
2023-02-19T02:47:32.315Z,9.90
2023-02-19T02:50:07.662Z,9.90
2023-02-19T02:53:01.109Z,9.90
2023-02-19T02:55:34.067Z,9.90
2023-02-19T02:58:03.533Z,9.90
2023-02-19T03:00:58.851Z,10.00
2023-02-19T03:03:30.294Z,10.00
2023-02-19T03:06:02.986Z,10.00
2023-02-19T03:08:35.334Z,10.00
2023-02-19T03:11:21.069Z,10.00
2023-02-19T03:14:11.146Z,10.00
2023-02-19T03:17:01.466Z,10.00
2023-02-19T03:19:36.045Z,10.10
2023-02-19T03:22:10.791Z,10.10
2023-02-19T03:25:01.661Z,10.10
2023-02-19T03:27:33.015Z,10.20
2023-02-19T03:30:06.007Z,10.20
2023-02-19T03:32:40.939Z,10.20
2023-02-19T03:35:15.630Z,10.30
2023-02-19T03:37:48.593Z,10.30
2023-02-19T03:40:18.261Z,10.30
2023-02-19T03:42:55.814Z,10.30
2023-02-19T03:45:39.419Z,10.30
2023-02-19T03:48:19.406Z,10.30
2023-02-19T03:50:53.215Z,10.30
2023-02-19T03:53:29.475Z,10.30
2023-02-19T03:56:09.086Z,10.30
2023-02-19T03:58:50.047Z,10.30
2023-02-19T04:01:24.696Z,10.20
2023-02-19T04:03:57.960Z,10.20
2023-02-19T04:06:32.471Z,10.20
2023-02-19T04:09:05.204Z,10.20
2023-02-19T04:11:34.965Z,10.20
2023-02-19T04:14:11.214Z,10.20
2023-02-19T04:16:44.690Z,10.20
2023-02-19T04:19:16.749Z,10.30
2023-02-19T04:21:48.084Z,10.30
2023-02-19T04:24:22.999Z,10.30
2023-02-19T04:26:51.873Z,10.20
2023-02-19T04:29:20.355Z,10.20
2023-02-19T04:31:49.267Z,10.30
2023-02-19T04:34:17.758Z,10.30
2023-02-19T04:36:47.780Z,10.30
2023-02-19T04:39:16.376Z,10.30
2023-02-19T04:41:44.964Z,10.20
2023-02-19T04:44:13.531Z,10.20
2023-02-19T04:46:43.184Z,10.20
2023-02-19T04:49:11.855Z,10.20
2023-02-19T04:51:41.027Z,10.20
2023-02-19T04:54:10.964Z,10.20
2023-02-19T04:56:40.433Z,10.20
2023-02-19T04:59:09.018Z,10.20
2023-02-19T05:01:37.635Z,10.30
2023-02-19T05:04:06.348Z,10.20
2023-02-19T05:06:34.997Z,10.20
2023-02-19T05:09:04.129Z,10.20
2023-02-19T05:11:34.180Z,10.20
2023-02-19T05:14:02.800Z,10.20
2023-02-19T05:16:31.471Z,10.20
2023-02-19T05:19:00.305Z,10.20
2023-02-19T05:21:28.973Z,10.20
2023-02-19T05:23:57.434Z,10.20
2023-02-19T05:26:26.694Z,10.20
2023-02-19T05:28:56.596Z,10.20
2023-02-19T05:31:25.543Z,10.20
2023-02-19T05:33:56.228Z,10.10
2023-02-19T05:36:25.234Z,10.10
2023-02-19T05:38:55.427Z,10.10
2023-02-19T05:41:25.970Z,10.10
2023-02-19T05:43:57.016Z,10.10
2023-02-19T05:46:27.478Z,10.10
2023-02-19T05:48:56.281Z,10.10
2023-02-19T05:51:26.357Z,10.10
2023-02-19T05:53:56.724Z,10.10
2023-02-19T05:56:32.866Z,10.10
2023-02-19T05:59:06.464Z,10.10
2023-02-19T06:01:36.408Z,10.10
2023-02-19T06:04:05.203Z,10.10
2023-02-19T06:06:33.996Z,10.10
2023-02-19T06:09:02.627Z,10.20
2023-02-19T06:11:31.507Z,10.20
2023-02-19T06:14:00.323Z,10.20
2023-02-19T06:16:32.178Z,10.20
2023-02-19T06:19:02.605Z,10.10
2023-02-19T06:21:31.215Z,10.10
2023-02-19T06:23:59.846Z,10.10
2023-02-19T06:26:28.378Z,10.00
2023-02-19T06:28:56.865Z,10.00
2023-02-19T06:31:25.976Z,10.00
2023-02-19T06:33:56.130Z,10.00
2023-02-19T06:36:25.129Z,10.00
2023-02-19T06:38:53.891Z,10.00
2023-02-19T06:41:22.388Z,9.90
2023-02-19T06:43:50.978Z,10.00
2023-02-19T06:46:19.758Z,9.90
2023-02-19T06:48:48.334Z,9.90
2023-02-19T06:51:23.679Z,9.90
2023-02-19T06:53:52.230Z,9.90
2023-02-19T06:56:26.468Z,9.90
2023-02-19T06:58:57.490Z,9.90
2023-02-19T07:01:26.307Z,9.90
2023-02-19T07:03:54.911Z,9.90
2023-02-19T07:06:26.433Z,9.90
2023-02-19T07:08:56.993Z,9.90
2023-02-19T07:11:26.171Z,9.90
2023-02-19T07:13:56.865Z,9.90
2023-02-19T07:16:26.217Z,9.90
2023-02-19T07:18:56.858Z,9.90
2023-02-19T07:21:28.155Z,9.90
2023-02-19T07:23:57.041Z,9.90
2023-02-19T07:26:26.013Z,9.90
2023-02-19T07:28:54.553Z,9.90
2023-02-19T07:31:25.123Z,10.00
2023-02-19T07:33:54.083Z,10.00
2023-02-19T07:36:24.031Z,10.00
2023-02-19T07:38:58.437Z,10.00
2023-02-19T07:41:28.606Z,10.00
2023-02-19T07:43:59.819Z,10.00
2023-02-19T07:46:29.917Z,10.00
2023-02-19T07:48:58.728Z,10.00
2023-02-19T07:51:27.287Z,9.90
2023-02-19T07:53:57.116Z,10.00
2023-02-19T07:56:25.676Z,9.90
2023-02-19T07:58:54.275Z,9.90
2023-02-19T08:01:45.080Z,9.90
2023-02-19T08:04:14.266Z,9.90
2023-02-19T08:06:43.718Z,9.90
2023-02-19T08:09:14.279Z,10.00
2023-02-19T08:12:00.458Z,10.00
2023-02-19T08:14:29.438Z,10.00
2023-02-19T08:16:58.087Z,10.00
2023-02-19T08:19:26.768Z,10.00
2023-02-19T08:21:55.350Z,10.00
2023-02-19T08:24:25.271Z,10.00
2023-02-19T08:26:53.942Z,10.00
2023-02-19T08:29:22.420Z,10.00
2023-02-19T08:31:51.104Z,10.00
2023-02-19T08:34:19.721Z,10.00
2023-02-19T08:36:48.198Z,10.00
2023-02-19T08:39:17.130Z,10.00
2023-02-19T08:41:48.157Z,10.00
2023-02-19T08:44:16.702Z,10.10
2023-02-19T08:46:45.278Z,10.10
2023-02-19T08:49:13.914Z,10.20
2023-02-19T08:51:42.456Z,10.20
2023-02-19T08:54:11.135Z,10.20
2023-02-19T08:56:39.694Z,10.20
2023-02-19T08:59:09.502Z,10.30
2023-02-19T09:01:38.073Z,10.30
2023-02-19T09:04:06.656Z,10.30
2023-02-19T09:06:35.720Z,10.40
2023-02-19T09:09:04.452Z,10.40
2023-02-19T09:11:33.027Z,10.40
2023-02-19T09:14:02.178Z,10.50
2023-02-19T09:16:32.036Z,10.50
2023-02-19T09:19:00.666Z,10.60
2023-02-19T09:21:29.242Z,10.60
2023-02-19T09:23:57.962Z,10.70
2023-02-19T09:26:26.505Z,10.70
2023-02-19T09:28:56.004Z,10.80
2023-02-19T09:31:24.633Z,10.80
2023-02-19T09:33:54.785Z,10.90
2023-02-19T09:36:23.316Z,10.90
2023-02-19T09:38:51.796Z,11.00
2023-02-19T09:41:26.628Z,11.00
2023-02-19T09:43:55.677Z,11.00
2023-02-19T09:46:29.980Z,11.10
2023-02-19T09:49:05.623Z,11.10
2023-02-19T09:51:37.765Z,11.10
2023-02-19T09:54:13.842Z,11.00
2023-02-19T09:56:42.533Z,11.00
2023-02-19T09:59:20.524Z,11.00
2023-02-19T10:01:54.857Z,11.00
2023-02-19T10:04:24.896Z,11.00
2023-02-19T10:06:58.944Z,11.00
2023-02-19T10:09:31.079Z,11.00
2023-02-19T10:12:00.908Z,11.00
2023-02-19T10:14:35.637Z,11.00
2023-02-19T10:17:06.911Z,11.00
2023-02-19T10:19:37.694Z,11.00
2023-02-19T10:22:06.462Z,11.00
2023-02-19T10:24:37.535Z,11.00
2023-02-19T10:27:11.397Z,11.10
2023-02-19T10:29:40.041Z,11.00
2023-02-19T10:32:21.547Z,11.00
2023-02-19T10:35:09.629Z,11.00
2023-02-19T10:37:43.998Z,11.00
2023-02-19T10:40:18.789Z,11.00
2023-02-19T10:42:49.196Z,11.00
2023-02-19T10:45:20.550Z,11.10
2023-02-19T10:47:50.175Z,11.00
2023-02-19T10:50:27.136Z,11.00
2023-02-19T10:52:58.083Z,10.90
2023-02-19T10:55:30.226Z,10.90
2023-02-19T10:57:59.383Z,10.90
2023-02-19T11:00:30.487Z,10.90
2023-02-19T11:03:15.329Z,10.90
2023-02-19T11:05:57.959Z,10.90
2023-02-19T11:08:26.704Z,10.90
2023-02-19T11:10:55.364Z,10.90
2023-02-19T11:13:32.248Z,10.90
2023-02-19T11:16:01.935Z,11.00
2023-02-19T11:18:32.957Z,10.90
2023-02-19T11:21:05.611Z,10.90
2023-02-19T11:23:38.150Z,10.90
2023-02-19T11:26:17.058Z,11.00
2023-02-19T11:28:45.983Z,11.10
2023-02-19T11:31:23.402Z,11.10
2023-02-19T11:33:57.202Z,11.20
2023-02-19T11:36:33.963Z,11.30
2023-02-19T11:39:21.183Z,11.40
2023-02-19T11:42:13.419Z,11.40
2023-02-19T11:44:55.117Z,11.40
2023-02-19T11:47:44.187Z,11.30
2023-02-19T11:50:22.171Z,11.30
2023-02-19T11:53:05.579Z,11.30
2023-02-19T11:55:50.830Z,11.40
2023-02-19T11:58:47.913Z,11.50
2023-02-19T12:01:24.351Z,11.60
2023-02-19T12:04:15.957Z,11.70
2023-02-19T12:06:55.543Z,11.70
2023-02-19T12:09:35.484Z,11.70
2023-02-19T12:12:21.665Z,11.70
2023-02-19T12:15:11.280Z,11.60
2023-02-19T12:17:58.069Z,11.60
2023-02-19T12:20:33.662Z,11.50
2023-02-19T12:23:25.940Z,11.50
2023-02-19T12:26:03.511Z,11.40
2023-02-19T12:28:45.487Z,11.40
2023-02-19T12:31:35.084Z,11.40
2023-02-19T12:34:22.131Z,11.40
2023-02-19T12:37:02.019Z,11.40
2023-02-19T12:39:43.189Z,11.40
2023-02-19T12:42:23.012Z,11.30
2023-02-19T12:44:57.649Z,11.30
2023-02-19T12:47:33.205Z,11.30
2023-02-19T12:50:09.336Z,11.20
2023-02-19T12:52:40.939Z,11.20
2023-02-19T12:55:22.343Z,11.30
2023-02-19T12:57:54.030Z,11.30
2023-02-19T13:00:31.548Z,11.30
2023-02-19T13:03:03.931Z,11.40
2023-02-19T13:05:43.241Z,11.40
2023-02-19T13:08:21.356Z,11.40
2023-02-19T13:10:55.914Z,11.40
2023-02-19T13:13:31.004Z,11.50
2023-02-19T13:16:04.135Z,11.50
2023-02-19T13:18:38.015Z,11.60
2023-02-19T13:21:07.274Z,11.60
2023-02-19T13:23:57.772Z,11.60
2023-02-19T13:26:55.397Z,11.60
2023-02-19T13:29:39.482Z,11.70
2023-02-19T13:32:22.909Z,11.70
2023-02-19T13:35:13.100Z,11.70
2023-02-19T13:37:42.173Z,11.80
2023-02-19T13:40:23.687Z,11.80
2023-02-19T13:42:57.340Z,11.70
2023-02-19T13:45:34.215Z,11.70
2023-02-19T13:48:16.501Z,11.80
2023-02-19T13:50:45.163Z,11.70
2023-02-19T13:53:51.775Z,11.70
2023-02-19T13:56:40.179Z,11.70
2023-02-19T13:59:36.895Z,11.70
2023-02-19T14:02:29.304Z,11.70
2023-02-19T14:05:01.068Z,11.70
2023-02-19T14:08:02.150Z,11.70
2023-02-19T14:11:01.966Z,11.60
2023-02-19T14:13:59.436Z,11.60
2023-02-19T14:16:33.351Z,11.60
2023-02-19T14:19:02.206Z,11.50
2023-02-19T14:21:39.037Z,11.40
2023-02-19T14:24:12.316Z,11.40
2023-02-19T14:26:41.739Z,11.40
2023-02-19T14:29:14.984Z,11.30
2023-02-19T14:31:46.587Z,11.30
2023-02-19T14:34:22.288Z,11.20
2023-02-19T14:36:55.034Z,11.20
2023-02-19T14:39:27.142Z,11.10
2023-02-19T14:41:59.275Z,11.10
2023-02-19T14:44:31.077Z,11.10
2023-02-19T14:47:04.414Z,11.10
2023-02-19T14:49:42.464Z,11.10
2023-02-19T14:52:18.777Z,11.10
2023-02-19T14:54:52.228Z,11.10
2023-02-19T14:57:23.495Z,11.10
2023-02-19T14:59:58.259Z,11.10
2023-02-19T15:02:28.107Z,11.10
2023-02-19T15:04:56.980Z,11.10
2023-02-19T15:07:31.162Z,11.10
2023-02-19T15:10:05.441Z,11.10
2023-02-19T15:12:36.867Z,11.00
2023-02-19T15:15:06.955Z,11.00
2023-02-19T15:17:39.206Z,11.00
2023-02-19T15:20:12.927Z,11.00
2023-02-19T15:22:43.082Z,10.90
2023-02-19T15:25:18.838Z,10.90
2023-02-19T15:27:47.692Z,10.90
2023-02-19T15:30:24.712Z,10.90
2023-02-19T15:32:55.117Z,10.90
2023-02-19T15:35:25.166Z,10.90
2023-02-19T15:37:56.483Z,10.90
2023-02-19T15:40:32.354Z,10.90
2023-02-19T15:43:02.086Z,10.90
2023-02-19T15:45:34.965Z,10.90
2023-02-19T15:48:07.421Z,10.80
2023-02-19T15:50:39.996Z,10.80
2023-02-19T15:53:15.541Z,10.70
2023-02-19T15:55:46.741Z,10.70
2023-02-19T15:58:22.142Z,10.70
2023-02-19T16:00:55.014Z,10.70
2023-02-19T16:03:25.851Z,10.70
2023-02-19T16:06:01.925Z,10.70
2023-02-19T16:08:34.131Z,10.70
2023-02-19T16:11:05.207Z,10.70
2023-02-19T16:13:36.134Z,10.60
2023-02-19T16:16:15.319Z,10.60
2023-02-19T16:18:46.452Z,10.60
2023-02-19T16:21:17.758Z,10.60
2023-02-19T16:23:50.568Z,10.50
2023-02-19T16:26:19.496Z,10.50
2023-02-19T16:28:52.389Z,10.40
2023-02-19T16:31:23.938Z,10.40
2023-02-19T16:33:52.562Z,10.40
2023-02-19T16:36:35.094Z,10.40
2023-02-19T16:39:23.571Z,10.30
2023-02-19T16:42:19.799Z,10.30
2023-02-19T16:44:49.024Z,10.30
2023-02-19T16:47:41.545Z,10.20
2023-02-19T16:50:15.597Z,10.30
2023-02-19T16:52:53.230Z,10.20
2023-02-19T16:55:23.861Z,10.10
2023-02-19T16:57:53.022Z,10.10
2023-02-19T17:00:23.855Z,10.10
2023-02-19T17:02:54.767Z,10.20
2023-02-19T17:05:24.938Z,10.20
2023-02-19T17:07:53.539Z,10.20
2023-02-19T17:10:25.520Z,10.20
2023-02-19T17:12:56.068Z,10.30
2023-02-19T17:15:24.655Z,10.30
2023-02-19T17:17:53.156Z,10.30
2023-02-19T17:20:27.421Z,10.20
2023-02-19T17:22:56.249Z,10.20
2023-02-19T17:25:26.254Z,10.20
2023-02-19T17:27:54.886Z,10.20
2023-02-19T17:30:27.883Z,10.20
2023-02-19T17:32:57.307Z,10.10
2023-02-19T17:35:44.937Z,10.10
2023-02-19T17:38:14.296Z,10.00
2023-02-19T17:40:45.217Z,10.00
2023-02-19T17:43:14.591Z,10.00
2023-02-19T17:45:43.211Z,10.00
2023-02-19T17:48:14.048Z,10.00
2023-02-19T17:50:43.125Z,9.90
2023-02-19T17:53:11.799Z,9.90
2023-02-19T17:55:40.336Z,9.90
2023-02-19T17:58:10.210Z,9.90
2023-02-19T18:00:38.872Z,9.90
2023-02-19T18:03:08.530Z,9.90
2023-02-19T18:05:37.099Z,9.90
2023-02-19T18:08:05.579Z,9.90
2023-02-19T18:10:34.110Z,9.80
2023-02-19T18:13:02.909Z,9.90
2023-02-19T18:15:33.403Z,9.80
2023-02-19T18:18:02.278Z,9.80
2023-02-19T18:20:31.509Z,9.80
2023-02-19T18:23:00.155Z,9.80
2023-02-19T18:25:28.759Z,9.80
2023-02-19T18:27:57.365Z,9.70
2023-02-19T18:30:26.149Z,9.80
2023-02-19T18:32:56.060Z,9.80
2023-02-19T18:35:24.651Z,9.80
2023-02-19T18:37:54.123Z,9.70
2023-02-19T18:40:25.240Z,9.70
2023-02-19T18:42:54.183Z,9.70
2023-02-19T18:45:22.966Z,9.60
2023-02-19T18:47:51.700Z,9.60
2023-02-19T18:50:21.823Z,9.60
2023-02-19T18:52:50.425Z,9.50
2023-02-19T18:55:19.390Z,9.50
2023-02-19T18:57:48.876Z,9.50
2023-02-19T19:00:19.450Z,9.50
2023-02-19T19:02:51.309Z,9.40
2023-02-19T19:05:23.216Z,9.40
2023-02-19T19:07:52.570Z,9.40
2023-02-19T19:10:21.846Z,9.40
2023-02-19T19:12:50.483Z,9.40
2023-02-19T19:15:19.486Z,9.30
2023-02-19T19:17:48.600Z,9.40
2023-02-19T19:20:18.672Z,9.40
2023-02-19T19:22:50.419Z,9.30
2023-02-19T19:25:19.130Z,9.30
2023-02-19T19:27:50.346Z,9.30
2023-02-19T19:30:20.013Z,9.30
2023-02-19T19:32:49.362Z,9.30
2023-02-19T19:35:19.188Z,9.20
2023-02-19T19:37:49.296Z,9.30
2023-02-19T19:40:18.826Z,9.20
2023-02-19T19:42:47.811Z,9.20
2023-02-19T19:45:16.955Z,9.10
2023-02-19T19:47:45.600Z,9.10
2023-02-19T19:50:14.439Z,9.10
2023-02-19T19:52:43.261Z,9.10
2023-02-19T19:55:13.210Z,9.10
2023-02-19T19:57:42.854Z,9.10
2023-02-19T20:00:16.111Z,9.10
2023-02-19T20:02:44.843Z,9.10
2023-02-19T20:05:14.352Z,9.10
2023-02-19T20:07:43.315Z,9.00
2023-02-19T20:10:15.968Z,9.00
2023-02-19T20:12:46.330Z,9.00
2023-02-19T20:15:21.701Z,9.00
2023-02-19T20:17:50.786Z,9.00
2023-02-19T20:20:19.870Z,9.00
2023-02-19T20:22:48.386Z,9.00
2023-02-19T20:25:18.508Z,9.00
2023-02-19T20:27:48.773Z,8.90
2023-02-19T20:30:17.994Z,8.90
2023-02-19T20:32:46.720Z,8.90
2023-02-19T20:35:16.825Z,8.90
2023-02-19T20:37:47.846Z,8.80
2023-02-19T20:40:19.778Z,8.90
2023-02-19T20:42:48.478Z,8.90
2023-02-19T20:45:17.684Z,8.90
2023-02-19T20:47:46.183Z,8.90
2023-02-19T20:50:16.860Z,8.90
2023-02-19T20:52:45.929Z,8.90
2023-02-19T20:55:14.467Z,8.90
2023-02-19T20:57:44.506Z,8.90
2023-02-19T21:00:15.526Z,8.80
2023-02-19T21:02:44.945Z,8.80
2023-02-19T21:05:13.594Z,8.80
2023-02-19T21:07:42.188Z,8.80
2023-02-19T21:10:11.449Z,8.80
2023-02-19T21:12:40.671Z,8.80
2023-02-19T21:15:11.014Z,8.80
2023-02-19T21:17:39.671Z,8.70
2023-02-19T21:20:09.539Z,8.70
2023-02-19T21:22:38.114Z,8.70
2023-02-19T21:25:07.550Z,8.70
2023-02-19T21:27:36.075Z,8.70
2023-02-19T21:30:05.260Z,8.60
2023-02-19T21:32:35.648Z,8.70
2023-02-19T21:35:04.369Z,8.60
2023-02-19T21:37:32.948Z,8.60
2023-02-19T21:40:01.516Z,8.60
2023-02-19T21:42:30.015Z,8.60
2023-02-19T21:44:58.593Z,8.60
2023-02-19T21:47:27.711Z,8.60
2023-02-19T21:49:57.550Z,8.60
2023-02-19T21:52:26.932Z,8.50
2023-02-19T21:54:55.546Z,8.50
2023-02-19T21:57:24.560Z,8.50
2023-02-19T21:59:53.395Z,8.50
2023-02-19T22:02:22.362Z,8.40
2023-02-19T22:04:54.531Z,8.40
2023-02-19T22:07:25.200Z,8.40
2023-02-19T22:09:53.938Z,8.40
2023-02-19T22:12:22.461Z,8.40
2023-02-19T22:14:51.663Z,8.30
2023-02-19T22:17:20.704Z,8.20
2023-02-19T22:19:49.288Z,8.20
2023-02-19T22:22:17.857Z,8.10
2023-02-19T22:24:47.770Z,8.10
2023-02-19T22:27:16.342Z,8.00
2023-02-19T22:29:44.898Z,7.90
2023-02-19T22:32:13.640Z,7.80
2023-02-19T22:34:42.282Z,7.80
2023-02-19T22:37:10.929Z,7.70
2023-02-19T22:39:39.541Z,7.60
2023-02-19T22:42:09.393Z,7.60
2023-02-19T22:44:38.285Z,7.60
2023-02-19T22:47:06.809Z,7.40
2023-02-19T22:49:38.321Z,7.40
2023-02-19T22:52:09.479Z,7.30
2023-02-19T22:54:38.565Z,7.30
2023-02-19T22:57:07.177Z,7.20
2023-02-19T22:59:37.045Z,7.20
2023-02-19T23:02:05.756Z,7.20
2023-02-19T23:04:34.370Z,7.20
2023-02-19T23:07:02.922Z,7.10
2023-02-19T23:09:31.497Z,7.10
2023-02-19T23:12:04.925Z,7.10
2023-02-19T23:14:34.003Z,7.00
2023-02-19T23:17:03.846Z,7.00
2023-02-19T23:19:32.634Z,7.00
2023-02-19T23:22:01.666Z,6.90
2023-02-19T23:24:30.231Z,6.90
2023-02-19T23:26:59.618Z,6.90
2023-02-19T23:29:30.424Z,6.80
2023-02-19T23:32:00.288Z,6.80
2023-02-19T23:34:30.217Z,6.70
2023-02-19T23:36:59.561Z,6.70
2023-02-19T23:39:28.177Z,6.70
2023-02-19T23:41:58.167Z,6.60
2023-02-19T23:44:27.073Z,6.60
2023-02-19T23:46:55.552Z,6.60
2023-02-19T23:49:24.315Z,6.50
2023-02-19T23:51:54.128Z,6.50
2023-02-19T23:54:22.652Z,6.40
2023-02-19T23:56:51.118Z,6.40
2023-02-19T23:59:19.672Z,6.30
